createdAt,value
2022-10-19T00:00:08.623Z,34
2022-10-19T00:01:08.608Z,40
2022-10-19T00:02:08.704Z,34
2022-10-19T00:03:08.636Z,49
2022-10-19T00:04:08.969Z,38
2022-10-19T00:05:08.594Z,41
2022-10-19T00:06:08.595Z,35
2022-10-19T00:07:08.590Z,33
2022-10-19T00:08:08.600Z,33
2022-10-19T00:09:08.602Z,43
2022-10-19T00:10:08.586Z,34
2022-10-19T00:11:08.581Z,36
2022-10-19T00:12:08.598Z,42
2022-10-19T00:13:08.582Z,35
2022-10-19T00:14:08.596Z,33
2022-10-19T00:15:08.581Z,29
2022-10-19T00:16:11.324Z,34
2022-10-19T00:17:08.580Z,31
2022-10-19T00:18:08.571Z,35
2022-10-19T00:19:08.620Z,46
2022-10-19T00:20:08.604Z,38
2022-10-19T00:21:08.570Z,39
2022-10-19T00:22:11.607Z,37
2022-10-19T00:23:08.573Z,38
2022-10-19T00:24:08.586Z,44
2022-10-19T00:25:08.563Z,37
2022-10-19T00:26:08.581Z,36
2022-10-19T00:27:08.568Z,31
2022-10-19T00:28:08.566Z,26
2022-10-19T00:29:08.618Z,27
2022-10-19T00:30:08.557Z,37
2022-10-19T00:31:08.586Z,37
2022-10-19T00:32:08.563Z,33
2022-10-19T00:33:08.577Z,30
2022-10-19T00:34:08.564Z,26
2022-10-19T00:35:08.594Z,27
2022-10-19T00:36:08.584Z,35
2022-10-19T00:37:08.562Z,30
2022-10-19T00:38:08.572Z,26
2022-10-19T00:39:08.552Z,32
2022-10-19T00:40:08.553Z,33
2022-10-19T00:41:08.555Z,32
2022-10-19T00:42:08.544Z,30
2022-10-19T00:43:08.559Z,28
2022-10-19T00:44:08.563Z,29
2022-10-19T00:45:08.557Z,28
2022-10-19T00:46:08.549Z,34
2022-10-19T00:47:08.544Z,34
2022-10-19T00:48:08.549Z,34
2022-10-19T00:49:10.729Z,41
2022-10-19T00:50:08.545Z,38
2022-10-19T00:51:08.563Z,28
2022-10-19T00:52:08.542Z,25
2022-10-19T00:53:08.555Z,33
2022-10-19T00:54:08.537Z,28
2022-10-19T00:55:08.550Z,28
2022-10-19T00:56:08.540Z,28
2022-10-19T00:57:08.532Z,23
2022-10-19T00:58:08.527Z,29
2022-10-19T00:59:08.545Z,26
2022-10-19T01:00:08.531Z,25
2022-10-19T01:01:08.576Z,27
2022-10-19T01:02:08.528Z,31
2022-10-19T01:03:08.519Z,24
2022-10-19T01:04:08.542Z,19
2022-10-19T01:05:08.520Z,17
2022-10-19T01:06:08.540Z,20
2022-10-19T01:07:08.543Z,18
2022-10-19T01:08:08.522Z,18
2022-10-19T01:09:08.531Z,25
2022-10-19T01:10:08.529Z,21
2022-10-19T01:11:08.513Z,14
2022-10-19T01:12:08.517Z,17
2022-10-19T01:13:08.508Z,21
2022-10-19T01:14:08.515Z,14
2022-10-19T01:15:08.524Z,18
2022-10-19T01:16:08.508Z,15
2022-10-19T01:17:08.506Z,14
2022-10-19T01:18:08.514Z,16
2022-10-19T01:19:08.503Z,16
2022-10-19T01:20:08.559Z,12
2022-10-19T01:21:08.519Z,20
2022-10-19T01:22:08.506Z,22
2022-10-19T01:23:08.531Z,15
2022-10-19T01:24:08.503Z,16
2022-10-19T01:25:08.510Z,10
2022-10-19T01:26:08.507Z,8
2022-10-19T01:27:08.494Z,21
2022-10-19T01:28:08.493Z,14
2022-10-19T01:29:08.594Z,15
2022-10-19T01:30:08.520Z,11
2022-10-19T01:31:08.497Z,11
2022-10-19T01:32:08.517Z,7
2022-10-19T01:33:08.496Z,18
2022-10-19T01:34:08.487Z,14
2022-10-19T01:35:08.491Z,18
2022-10-19T01:36:08.488Z,9
2022-10-19T01:37:08.495Z,10
2022-10-19T01:38:08.490Z,9
2022-10-19T01:39:08.503Z,7
2022-10-19T01:40:08.483Z,4
2022-10-19T01:41:08.493Z,10
2022-10-19T01:42:08.482Z,8
2022-10-19T01:43:08.506Z,24
2022-10-19T01:44:08.476Z,13
2022-10-19T01:45:08.479Z,9
2022-10-19T01:46:08.489Z,19
2022-10-19T01:47:08.470Z,13
2022-10-19T01:48:08.483Z,15
2022-10-19T01:49:08.482Z,7
2022-10-19T01:50:08.467Z,4
2022-10-19T01:51:08.487Z,6
2022-10-19T01:52:08.487Z,7
2022-10-19T01:53:08.470Z,6
2022-10-19T01:54:08.458Z,12
2022-10-19T01:55:08.487Z,4
2022-10-19T01:56:08.479Z,3
2022-10-19T01:57:08.463Z,14
2022-10-19T01:58:09.664Z,6
2022-10-19T01:59:08.455Z,7
2022-10-19T02:00:08.459Z,4
2022-10-19T02:01:08.630Z,1
2022-10-19T02:02:08.456Z,2
2022-10-19T02:03:08.466Z,0
2022-10-19T02:04:08.459Z,3
2022-10-19T02:05:08.461Z,2
2022-10-19T02:06:08.462Z,0
2022-10-19T02:07:08.446Z,3
2022-10-19T02:08:08.448Z,3
2022-10-19T02:09:08.467Z,3
2022-10-19T02:10:08.505Z,1
2022-10-19T02:11:08.474Z,4
2022-10-19T02:12:08.454Z,8
2022-10-19T02:13:08.460Z,7
2022-10-19T02:14:08.449Z,3
2022-10-19T02:15:08.438Z,5
2022-10-19T02:16:08.449Z,1
2022-10-19T02:17:08.444Z,0
2022-10-19T02:18:08.455Z,1
2022-10-19T02:19:08.436Z,4
2022-10-19T02:20:08.471Z,2
2022-10-19T02:21:08.433Z,1
2022-10-19T02:22:08.447Z,7
2022-10-19T02:23:08.427Z,9
2022-10-19T02:24:08.444Z,5
2022-10-19T02:25:08.427Z,1
2022-10-19T02:26:08.424Z,0
2022-10-19T02:27:08.459Z,2
2022-10-19T02:28:08.460Z,0
2022-10-19T02:29:08.439Z,0
2022-10-19T02:30:08.424Z,0
2022-10-19T02:31:08.438Z,4
2022-10-19T02:32:08.444Z,5
2022-10-19T02:33:08.414Z,3
2022-10-19T02:34:08.432Z,0
2022-10-19T02:35:08.418Z,8
2022-10-19T02:36:08.434Z,4
2022-10-19T02:37:08.421Z,7
2022-10-19T02:38:08.409Z,9
2022-10-19T02:39:08.411Z,14
2022-10-19T02:40:08.421Z,24
2022-10-19T02:41:08.413Z,19
2022-10-19T02:42:08.413Z,9
2022-10-19T02:43:08.436Z,21
2022-10-19T02:44:08.420Z,9
2022-10-19T02:45:08.405Z,6
2022-10-19T02:46:08.402Z,3
2022-10-19T02:47:08.397Z,9
2022-10-19T02:48:08.405Z,18
2022-10-19T02:49:08.414Z,13
2022-10-19T02:50:08.417Z,10
2022-10-19T02:51:08.405Z,9
2022-10-19T02:52:08.402Z,18
2022-10-19T02:53:08.413Z,20
2022-10-19T02:54:08.434Z,25
2022-10-19T02:55:08.401Z,26
2022-10-19T02:56:08.395Z,24
2022-10-19T02:57:08.397Z,11
2022-10-19T02:58:08.394Z,9
2022-10-19T02:59:08.456Z,14
2022-10-19T03:00:08.387Z,10
2022-10-19T03:01:08.461Z,13
2022-10-19T03:02:08.393Z,16
2022-10-19T03:03:08.377Z,13
2022-10-19T03:04:08.404Z,5
2022-10-19T03:05:08.396Z,9
2022-10-19T03:06:08.382Z,7
2022-10-19T03:07:08.379Z,0
2022-10-19T03:08:08.398Z,7
2022-10-19T03:09:08.387Z,12
2022-10-19T03:10:08.408Z,6
2022-10-19T03:11:08.380Z,5
2022-10-19T03:12:08.587Z,12
2022-10-19T03:13:08.379Z,2
2022-10-19T03:14:08.389Z,9
2022-10-19T03:15:08.392Z,6
2022-10-19T03:16:08.392Z,2
2022-10-19T03:17:08.391Z,9
2022-10-19T03:18:08.365Z,1
2022-10-19T03:19:08.365Z,1
2022-10-19T03:20:08.425Z,0
2022-10-19T03:21:08.380Z,0
2022-10-19T03:22:08.362Z,1
2022-10-19T03:23:08.507Z,8
2022-10-19T03:24:08.362Z,16
2022-10-19T03:25:08.366Z,5
2022-10-19T03:26:11.422Z,7
2022-10-19T03:27:08.376Z,0
2022-10-19T03:28:08.351Z,6
2022-10-19T03:29:08.365Z,10
2022-10-19T03:30:09.541Z,4
2022-10-19T03:31:08.377Z,7
2022-10-19T03:32:08.349Z,11
2022-10-19T03:33:08.355Z,8
2022-10-19T03:34:08.365Z,0
2022-10-19T03:35:08.362Z,0
2022-10-19T03:36:08.342Z,3
2022-10-19T03:37:08.345Z,0
2022-10-19T03:38:08.346Z,0
2022-10-19T03:39:08.338Z,1
2022-10-19T03:40:08.355Z,4
2022-10-19T03:41:08.348Z,0
2022-10-19T03:42:08.342Z,0
2022-10-19T03:43:08.353Z,10
2022-10-19T03:44:08.353Z,2
2022-10-19T03:45:08.397Z,3
2022-10-19T03:46:08.351Z,16
2022-10-19T03:47:08.422Z,26
2022-10-19T03:48:08.345Z,23
2022-10-19T03:49:08.347Z,23
2022-10-19T03:50:08.349Z,11
2022-10-19T03:51:08.346Z,0
2022-10-19T03:52:08.453Z,0
2022-10-19T03:53:08.337Z,0
2022-10-19T03:54:08.359Z,1
2022-10-19T03:55:08.324Z,0
2022-10-19T03:56:08.321Z,0
2022-10-19T03:57:08.342Z,0
2022-10-19T03:58:08.327Z,0
2022-10-19T03:59:08.323Z,0
2022-10-19T04:00:08.334Z,0
2022-10-19T04:01:08.422Z,7
2022-10-19T04:02:08.336Z,13
2022-10-19T04:03:08.344Z,6
2022-10-19T04:04:08.319Z,3
2022-10-19T04:05:08.312Z,0
2022-10-19T04:06:08.310Z,14
2022-10-19T04:07:08.324Z,11
2022-10-19T04:08:08.308Z,23
2022-10-19T04:09:08.318Z,14
2022-10-19T04:10:08.325Z,0
2022-10-19T04:11:08.315Z,0
2022-10-19T04:12:08.303Z,0
2022-10-19T04:13:08.350Z,8
2022-10-19T04:15:08.317Z,3
2022-10-19T04:16:08.314Z,0
2022-10-19T04:17:08.392Z,0
2022-10-19T04:18:08.297Z,0
2022-10-19T04:19:08.320Z,0
2022-10-19T04:20:08.339Z,0
2022-10-19T04:21:08.293Z,0
2022-10-19T04:22:08.327Z,0
2022-10-19T04:23:08.334Z,0
2022-10-19T04:24:08.480Z,0
2022-10-19T04:25:08.306Z,8
2022-10-19T04:26:08.291Z,0
2022-10-19T04:27:08.290Z,0
2022-10-19T04:28:08.288Z,0
2022-10-19T04:29:08.367Z,0
2022-10-19T04:30:08.309Z,0
2022-10-19T04:31:08.280Z,0
2022-10-19T04:32:08.298Z,0
2022-10-19T04:33:08.299Z,0
2022-10-19T04:34:08.367Z,0
2022-10-19T04:35:08.306Z,0
2022-10-19T04:36:08.297Z,0
2022-10-19T04:37:08.287Z,0
2022-10-19T04:38:08.279Z,0
2022-10-19T04:39:08.286Z,0
2022-10-19T04:40:12.712Z,0
2022-10-19T04:41:11.272Z,0
2022-10-19T04:42:08.273Z,0
2022-10-19T04:43:08.269Z,0
2022-10-19T04:44:08.283Z,0
2022-10-19T04:45:08.274Z,0
2022-10-19T04:46:08.270Z,0
2022-10-19T04:47:08.273Z,0
2022-10-19T04:48:08.262Z,0
2022-10-19T04:49:08.305Z,0
2022-10-19T04:50:08.263Z,0
2022-10-19T04:51:08.372Z,0
2022-10-19T04:52:08.255Z,0
2022-10-19T04:53:08.257Z,0
2022-10-19T04:54:08.343Z,0
2022-10-19T04:55:08.268Z,0
2022-10-19T04:56:08.254Z,0
2022-10-19T04:57:08.264Z,0
2022-10-19T04:58:08.254Z,0
2022-10-19T04:59:08.247Z,0
2022-10-19T05:00:08.257Z,0
2022-10-19T05:01:08.326Z,0
2022-10-19T05:02:08.255Z,0
2022-10-19T05:03:08.244Z,2
2022-10-19T05:04:08.260Z,0
2022-10-19T05:05:08.247Z,0
2022-10-19T05:06:08.243Z,0
2022-10-19T05:07:08.282Z,20
2022-10-19T05:08:08.244Z,40
2022-10-19T05:09:08.256Z,46
2022-10-19T05:10:08.267Z,61
2022-10-19T05:11:08.235Z,74
2022-10-19T05:12:08.235Z,70
2022-10-19T05:13:08.234Z,80
2022-10-19T05:14:08.246Z,72
2022-10-19T05:15:08.240Z,76
2022-10-19T05:16:08.253Z,84
2022-10-19T05:17:08.236Z,65
2022-10-19T05:18:08.234Z,74
2022-10-19T05:19:08.243Z,81
2022-10-19T05:20:08.296Z,75
2022-10-19T05:21:08.219Z,89
2022-10-19T05:22:08.234Z,116
2022-10-19T05:23:08.251Z,109
2022-10-19T05:24:08.219Z,101
2022-10-19T05:25:08.235Z,113
2022-10-19T05:26:08.290Z,104
2022-10-19T05:27:08.223Z,111
2022-10-19T05:28:08.214Z,114
2022-10-19T05:29:08.255Z,117
2022-10-19T05:30:09.257Z,120
2022-10-19T05:31:08.227Z,112
2022-10-19T05:32:08.211Z,133
2022-10-19T05:33:08.218Z,146
2022-10-19T05:35:08.211Z,129
2022-10-19T05:36:08.228Z,127
2022-10-19T05:37:08.227Z,138
2022-10-19T05:38:08.223Z,139
2022-10-19T05:39:08.241Z,163
2022-10-19T05:40:08.209Z,147
2022-10-19T05:41:08.196Z,139
2022-10-19T05:42:08.223Z,151
2022-10-19T05:43:08.197Z,154
2022-10-19T05:44:08.205Z,166
2022-10-19T05:45:08.217Z,173
2022-10-19T05:46:08.212Z,139
2022-10-19T05:47:08.211Z,161
2022-10-19T05:48:08.190Z,145
2022-10-19T05:49:08.195Z,151
2022-10-19T05:50:08.201Z,146
2022-10-19T05:51:08.192Z,144
2022-10-19T05:52:08.190Z,166
2022-10-19T05:53:08.190Z,172
2022-10-19T05:54:08.190Z,168
2022-10-19T05:55:08.275Z,150
2022-10-19T05:56:08.189Z,162
2022-10-19T05:57:08.190Z,187
2022-10-19T05:58:08.186Z,168
2022-10-19T05:59:08.197Z,162
2022-10-19T06:00:08.183Z,158
2022-10-19T06:01:08.174Z,178
2022-10-19T06:02:08.225Z,186
2022-10-19T06:03:08.187Z,187
2022-10-19T06:04:08.260Z,205
2022-10-19T06:05:08.172Z,178
2022-10-19T06:06:08.208Z,162
2022-10-19T06:07:08.175Z,162
2022-10-19T06:08:08.172Z,191
2022-10-19T06:09:08.165Z,168
2022-10-19T06:10:08.169Z,189
2022-10-19T06:11:08.199Z,187
2022-10-19T06:12:08.171Z,176
2022-10-19T06:13:08.162Z,230
2022-10-19T06:14:08.169Z,247
2022-10-19T06:15:08.158Z,338
2022-10-19T06:16:08.178Z,244
2022-10-19T06:17:08.164Z,271
2022-10-19T06:18:08.174Z,245
2022-10-19T06:19:08.172Z,209
2022-10-19T06:20:08.215Z,220
2022-10-19T06:21:08.151Z,236
2022-10-19T06:22:08.155Z,205
2022-10-19T06:23:08.151Z,202
2022-10-19T06:24:08.168Z,205
2022-10-19T06:25:08.170Z,190
2022-10-19T06:26:08.164Z,206
2022-10-19T06:27:08.306Z,213
2022-10-19T06:28:08.152Z,210
2022-10-19T06:29:08.146Z,206
2022-10-19T06:30:08.162Z,211
2022-10-19T06:31:09.362Z,220
2022-10-19T06:32:08.153Z,234
2022-10-19T06:33:08.153Z,220
2022-10-19T06:34:08.216Z,213
2022-10-19T06:35:08.174Z,225
2022-10-19T06:36:08.142Z,222
2022-10-19T06:37:08.133Z,213
2022-10-19T06:38:08.164Z,214
2022-10-19T06:39:08.148Z,225
2022-10-19T06:40:08.229Z,232
2022-10-19T06:41:08.126Z,234
2022-10-19T06:42:08.128Z,233
2022-10-19T06:43:08.164Z,233
2022-10-19T06:44:08.123Z,241
2022-10-19T06:45:08.164Z,245
2022-10-19T06:46:08.135Z,261
2022-10-19T06:47:08.134Z,247
2022-10-19T06:48:08.131Z,234
2022-10-19T06:49:08.128Z,238
2022-10-19T06:50:08.143Z,252
2022-10-19T06:51:08.133Z,246
2022-10-19T06:52:08.128Z,242
2022-10-19T06:53:08.134Z,263
2022-10-19T06:54:08.122Z,269
2022-10-19T06:55:08.113Z,249
2022-10-19T06:56:08.113Z,254
2022-10-19T06:57:08.152Z,251
2022-10-19T06:58:08.118Z,254
2022-10-19T06:59:08.140Z,277
2022-10-19T07:00:08.112Z,270
2022-10-19T07:01:08.237Z,281
2022-10-19T07:02:08.118Z,289
2022-10-19T07:03:08.110Z,325
2022-10-19T07:04:08.103Z,281
2022-10-19T07:05:08.108Z,287
2022-10-19T07:06:08.119Z,317
2022-10-19T07:07:08.114Z,326
2022-10-19T07:08:08.218Z,308
2022-10-19T07:09:08.099Z,311
2022-10-19T07:10:08.100Z,314
2022-10-19T07:11:08.103Z,297
2022-10-19T07:12:08.125Z,309
2022-10-19T07:14:08.106Z,291
2022-10-19T07:15:08.119Z,311
2022-10-19T07:16:08.085Z,335
2022-10-19T07:17:08.121Z,317
2022-10-19T07:18:08.096Z,301
2022-10-19T07:19:08.164Z,298
2022-10-19T07:20:08.115Z,301
2022-10-19T07:21:08.092Z,312
2022-10-19T07:22:08.212Z,293
2022-10-19T07:23:08.086Z,294
2022-10-19T07:24:08.081Z,292
2022-10-19T07:25:08.086Z,282
2022-10-19T07:26:08.084Z,291
2022-10-19T07:27:08.090Z,302
2022-10-19T07:28:08.094Z,296
2022-10-19T07:29:08.079Z,261
2022-10-19T07:30:08.079Z,246
2022-10-19T07:31:08.099Z,233
2022-10-19T07:32:08.104Z,234
2022-10-19T07:33:08.137Z,222
2022-10-19T07:34:08.085Z,228
2022-10-19T07:35:08.071Z,217
2022-10-19T07:36:08.072Z,202
2022-10-19T07:37:08.083Z,200
2022-10-19T07:38:08.072Z,198
2022-10-19T07:39:08.084Z,199
2022-10-19T07:40:08.073Z,195
2022-10-19T07:41:08.073Z,179
2022-10-19T07:42:08.158Z,174
2022-10-19T07:43:08.065Z,156
2022-10-19T07:44:09.901Z,156
2022-10-19T07:45:08.060Z,162
2022-10-19T07:46:08.069Z,194
2022-10-19T07:47:09.081Z,195
2022-10-19T07:48:08.067Z,189
2022-10-19T07:49:08.065Z,184
2022-10-19T07:50:08.129Z,178
2022-10-19T07:51:08.060Z,188
2022-10-19T07:52:08.066Z,190
2022-10-19T07:53:08.056Z,208
2022-10-19T07:54:08.045Z,205
2022-10-19T07:55:08.062Z,195
2022-10-19T07:56:08.058Z,200
2022-10-19T07:57:08.061Z,194
2022-10-19T07:58:08.073Z,210
2022-10-19T07:59:08.052Z,211
2022-10-19T08:00:08.038Z,219
2022-10-19T08:01:08.055Z,213
2022-10-19T08:02:08.176Z,215
2022-10-19T08:05:11.599Z,212
2022-10-19T08:06:08.029Z,226
2022-10-19T08:07:08.038Z,225
2022-10-19T08:08:08.044Z,228
2022-10-19T08:09:08.144Z,226
2022-10-19T08:10:08.026Z,224
2022-10-19T08:11:08.026Z,223
2022-10-19T08:12:11.167Z,226
2022-10-19T08:13:08.058Z,237
2022-10-19T08:14:08.027Z,226
2022-10-19T08:15:08.045Z,233
2022-10-19T08:16:08.023Z,234
2022-10-19T08:17:08.026Z,231
2022-10-19T08:18:08.054Z,224
2022-10-19T08:19:08.069Z,237
2022-10-19T08:20:08.052Z,227
2022-10-19T08:21:08.015Z,227
2022-10-19T08:22:08.011Z,242
2022-10-19T08:23:08.033Z,258
2022-10-19T08:24:08.015Z,246
2022-10-19T08:25:08.016Z,247
2022-10-19T08:26:08.006Z,284
2022-10-19T08:27:08.131Z,261
2022-10-19T08:28:08.016Z,256
2022-10-19T08:29:08.009Z,252
2022-10-19T08:30:08.004Z,254
2022-10-19T08:31:08.000Z,256
2022-10-19T08:32:08.018Z,254
2022-10-19T08:33:08.005Z,268
2022-10-19T08:34:07.999Z,267
2022-10-19T08:35:10.744Z,264
2022-10-19T08:36:07.995Z,286
2022-10-19T08:37:19.777Z,266
2022-10-19T08:38:08.014Z,259
2022-10-19T08:39:07.991Z,285
2022-10-19T08:40:08.001Z,272
2022-10-19T08:41:08.004Z,299
2022-10-19T08:42:08.035Z,280
2022-10-19T08:43:08.005Z,281
2022-10-19T08:44:10.122Z,297
2022-10-19T08:45:07.990Z,282
2022-10-19T08:46:07.990Z,282
2022-10-19T08:47:08.737Z,275
2022-10-19T08:48:07.992Z,320
2022-10-19T08:49:07.981Z,302
2022-10-19T08:50:07.979Z,287
2022-10-19T08:51:08.035Z,286
2022-10-19T08:52:08.002Z,261
2022-10-19T08:53:07.983Z,265
2022-10-19T08:54:07.985Z,272
2022-10-19T08:55:07.974Z,290
2022-10-19T08:56:07.990Z,314
2022-10-19T08:57:08.102Z,304
2022-10-19T08:58:07.969Z,273
2022-10-19T08:59:07.999Z,277
2022-10-19T09:00:07.975Z,276
2022-10-19T09:01:07.979Z,277
2022-10-19T09:02:07.975Z,281
2022-10-19T09:03:07.963Z,274
2022-10-19T09:04:07.964Z,280
2022-10-19T09:05:07.965Z,311
2022-10-19T09:06:07.979Z,292
2022-10-19T09:07:08.003Z,287
2022-10-19T09:08:07.964Z,281
2022-10-19T09:09:08.034Z,284
2022-10-19T09:10:07.996Z,314
2022-10-19T09:11:07.964Z,303
2022-10-19T09:12:07.957Z,329
2022-10-19T09:13:07.950Z,301
2022-10-19T09:14:07.975Z,288
2022-10-19T09:15:07.949Z,317
2022-10-19T09:16:07.950Z,307
2022-10-19T09:17:07.989Z,296
2022-10-19T09:18:07.954Z,322
2022-10-19T09:19:07.942Z,315
2022-10-19T09:20:07.953Z,296
2022-10-19T09:21:07.991Z,299
2022-10-19T09:22:07.962Z,315
2022-10-19T09:23:13.042Z,321
2022-10-19T09:24:07.942Z,323
2022-10-19T09:25:07.960Z,317
2022-10-19T09:26:07.936Z,314
2022-10-19T09:27:07.959Z,304
2022-10-19T09:28:07.946Z,308
2022-10-19T09:29:07.940Z,334
2022-10-19T09:30:08.005Z,327
2022-10-19T09:31:07.938Z,319
2022-10-19T09:32:07.937Z,297
2022-10-19T09:33:09.999Z,297
2022-10-19T09:34:07.934Z,284
2022-10-19T09:35:07.953Z,280
2022-10-19T09:36:07.933Z,276
2022-10-19T09:37:07.978Z,274
2022-10-19T09:38:07.929Z,272
2022-10-19T09:39:07.946Z,276
2022-10-19T09:40:07.985Z,272
2022-10-19T09:41:07.923Z,272
2022-10-19T09:42:07.921Z,274
2022-10-19T09:43:07.919Z,267
2022-10-19T09:44:07.918Z,274
2022-10-19T09:45:07.931Z,268
2022-10-19T09:46:16.639Z,258
2022-10-19T09:47:10.209Z,262
2022-10-19T09:48:12.816Z,286
2022-10-19T09:49:07.912Z,284
2022-10-19T09:50:07.929Z,290
2022-10-19T09:51:07.911Z,284
2022-10-19T09:52:07.908Z,279
2022-10-19T09:53:07.904Z,296
2022-10-19T09:54:07.902Z,273
2022-10-19T09:55:07.950Z,279
2022-10-19T09:56:07.911Z,264
2022-10-19T09:57:07.904Z,273
2022-10-19T09:58:07.901Z,266
2022-10-19T09:59:07.902Z,261
2022-10-19T10:00:07.913Z,232
2022-10-19T10:01:07.911Z,211
2022-10-19T10:02:07.938Z,226
2022-10-19T10:03:07.966Z,223
2022-10-19T10:04:07.901Z,229
2022-10-19T10:05:07.917Z,211
2022-10-19T10:06:07.903Z,198
2022-10-19T10:07:07.905Z,183
2022-10-19T10:08:07.896Z,194
2022-10-19T10:09:07.916Z,191
2022-10-19T10:10:07.905Z,205
2022-10-19T10:11:07.915Z,209
2022-10-19T10:12:07.912Z,228
2022-10-19T10:13:07.885Z,220
2022-10-19T10:14:09.943Z,221
2022-10-19T10:15:07.911Z,227
2022-10-19T10:16:07.878Z,233
2022-10-19T10:17:07.898Z,223
2022-10-19T10:18:07.880Z,221
2022-10-19T10:19:07.889Z,222
2022-10-19T10:20:07.882Z,232
2022-10-19T10:21:07.922Z,235
2022-10-19T10:22:07.883Z,230
2022-10-19T10:23:07.871Z,233
2022-10-19T10:24:07.881Z,234
2022-10-19T10:25:07.874Z,225
2022-10-19T10:26:07.882Z,240
2022-10-19T10:27:07.897Z,245
2022-10-19T10:28:07.865Z,247
2022-10-19T10:29:07.870Z,242
2022-10-19T10:30:07.867Z,239
2022-10-19T10:31:07.889Z,243
2022-10-19T10:32:07.872Z,238
2022-10-19T10:33:20.497Z,253
2022-10-19T10:34:22.500Z,257
2022-10-19T10:35:07.862Z,247
2022-10-19T10:36:07.868Z,255
2022-10-19T10:37:07.878Z,251
2022-10-19T10:38:07.865Z,261
2022-10-19T10:39:07.869Z,252
2022-10-19T10:40:07.881Z,274
2022-10-19T10:41:07.868Z,261
2022-10-19T10:42:07.865Z,258
2022-10-19T10:43:07.895Z,252
2022-10-19T10:44:07.860Z,253
2022-10-19T10:45:07.863Z,252
2022-10-19T10:46:07.842Z,269
2022-10-19T10:47:07.858Z,269
2022-10-19T10:49:07.848Z,281
2022-10-19T10:50:07.858Z,284
2022-10-19T10:51:07.837Z,263
2022-10-19T10:52:07.839Z,250
2022-10-19T10:53:07.859Z,268
2022-10-19T10:54:07.849Z,269
2022-10-19T10:55:07.839Z,276
2022-10-19T10:56:07.834Z,282
2022-10-19T10:57:07.949Z,279
2022-10-19T10:58:07.848Z,281
2022-10-19T10:59:07.863Z,319
2022-10-19T11:00:07.851Z,276
2022-10-19T11:01:08.034Z,296
2022-10-19T11:02:07.902Z,306
2022-10-19T11:03:07.840Z,314
2022-10-19T11:04:07.824Z,302
2022-10-19T11:05:07.831Z,285
2022-10-19T11:06:07.823Z,273
2022-10-19T11:07:07.818Z,286
2022-10-19T11:08:07.837Z,292
2022-10-19T11:09:07.909Z,311
2022-10-19T11:10:07.818Z,309
2022-10-19T11:11:07.821Z,373
2022-10-19T11:12:07.820Z,297
2022-10-19T11:13:07.825Z,308
2022-10-19T11:14:07.811Z,336
2022-10-19T11:15:07.843Z,370
2022-10-19T11:16:07.813Z,401
2022-10-19T11:17:07.814Z,379
2022-10-19T11:18:07.832Z,369
2022-10-19T11:19:07.850Z,378
2022-10-19T11:20:07.837Z,385
2022-10-19T11:21:07.845Z,370
2022-10-19T11:22:07.803Z,336
2022-10-19T11:23:07.822Z,372
2022-10-19T11:24:07.817Z,378
2022-10-19T11:25:07.832Z,395
2022-10-19T11:26:07.801Z,394
2022-10-19T11:27:07.804Z,388
2022-10-19T11:28:07.800Z,385
2022-10-19T11:29:07.803Z,365
2022-10-19T11:30:07.811Z,338
2022-10-19T11:31:07.820Z,372
2022-10-19T11:32:07.823Z,397
2022-10-19T11:33:07.790Z,385
2022-10-19T11:34:07.795Z,348
2022-10-19T11:35:07.809Z,362
2022-10-19T11:36:07.785Z,379
2022-10-19T11:37:07.808Z,381
2022-10-19T11:38:19.671Z,401
2022-10-19T11:39:07.786Z,430
2022-10-19T11:40:07.785Z,367
2022-10-19T11:41:23.102Z,396
2022-10-19T11:42:07.803Z,379
2022-10-19T11:43:07.780Z,364
2022-10-19T11:44:07.792Z,357
2022-10-19T11:45:07.781Z,399
2022-10-19T11:46:07.792Z,391
2022-10-19T11:47:07.800Z,361
2022-10-19T11:48:07.774Z,362
2022-10-19T11:49:07.793Z,354
2022-10-19T11:51:21.002Z,370
2022-10-19T11:52:07.808Z,362
2022-10-19T11:53:07.768Z,369
2022-10-19T11:54:11.178Z,382
2022-10-19T11:55:07.777Z,365
2022-10-19T11:56:07.764Z,370
2022-10-19T11:57:11.410Z,383
2022-10-19T11:58:07.765Z,375
2022-10-19T11:59:07.797Z,356
2022-10-19T12:00:15.153Z,350
2022-10-19T12:01:07.760Z,392
2022-10-19T12:02:07.860Z,378
2022-10-19T12:03:07.818Z,393
2022-10-19T12:04:07.760Z,389
2022-10-19T12:05:07.761Z,390
2022-10-19T12:06:07.753Z,385
2022-10-19T12:07:07.756Z,367
2022-10-19T12:08:07.836Z,375
2022-10-19T12:09:07.807Z,370
2022-10-19T12:10:07.751Z,385
2022-10-19T12:11:07.751Z,397
2022-10-19T12:12:07.780Z,400
2022-10-19T12:13:07.750Z,396
2022-10-19T12:14:07.748Z,394
2022-10-19T12:15:07.744Z,378
2022-10-19T12:16:07.757Z,390
2022-10-19T12:17:07.788Z,382
2022-10-19T12:18:07.744Z,387
2022-10-19T12:19:07.782Z,397
2022-10-19T12:20:07.739Z,376
2022-10-19T12:21:07.784Z,396
2022-10-19T12:22:07.736Z,417
2022-10-19T12:23:07.742Z,407
2022-10-19T12:24:07.735Z,406
2022-10-19T12:25:07.745Z,411
2022-10-19T12:26:07.810Z,403
2022-10-19T12:27:07.759Z,390
2022-10-19T12:28:07.726Z,398
2022-10-19T12:29:07.746Z,403
2022-10-19T12:30:07.728Z,372
2022-10-19T12:31:07.747Z,390
2022-10-19T12:32:07.743Z,393
2022-10-19T12:33:07.727Z,403
2022-10-19T12:34:07.723Z,405
2022-10-19T12:35:07.807Z,413
2022-10-19T12:36:07.740Z,406
2022-10-19T12:37:07.715Z,387
2022-10-19T12:38:07.724Z,400
2022-10-19T12:39:07.713Z,396
2022-10-19T12:40:07.730Z,390
2022-10-19T12:41:07.716Z,391
2022-10-19T12:42:07.724Z,400
2022-10-19T12:43:07.731Z,403
2022-10-19T12:44:07.713Z,422
2022-10-19T12:45:07.711Z,401
2022-10-19T12:46:07.712Z,428
2022-10-19T12:47:07.723Z,413
2022-10-19T12:48:07.707Z,402
2022-10-19T12:49:07.718Z,398
2022-10-19T12:50:07.799Z,395
2022-10-19T12:51:07.733Z,399
2022-10-19T12:52:07.708Z,433
2022-10-19T12:53:07.714Z,413
2022-10-19T12:54:07.695Z,394
2022-10-19T12:55:07.717Z,383
2022-10-19T12:56:07.694Z,405
2022-10-19T12:57:07.705Z,402
2022-10-19T12:58:07.700Z,409
2022-10-19T12:59:07.709Z,390
2022-10-19T13:00:07.700Z,383
2022-10-19T13:01:07.767Z,405
2022-10-19T13:02:07.709Z,398
2022-10-19T13:03:07.699Z,417
2022-10-19T13:04:07.704Z,400
2022-10-19T13:05:07.691Z,405
2022-10-19T13:06:07.800Z,390
2022-10-19T13:07:07.725Z,406
2022-10-19T13:08:10.675Z,392
2022-10-19T13:09:07.772Z,390
2022-10-19T13:10:07.775Z,390
2022-10-19T13:11:07.683Z,380
2022-10-19T13:12:07.683Z,369
2022-10-19T13:13:07.695Z,374
2022-10-19T13:14:07.693Z,365
2022-10-19T13:15:07.671Z,387
2022-10-19T13:16:07.695Z,387
2022-10-19T13:17:07.676Z,391
2022-10-19T13:18:07.669Z,380
2022-10-19T13:19:07.687Z,389
2022-10-19T13:20:07.714Z,378
2022-10-19T13:21:08.530Z,375
2022-10-19T13:22:07.667Z,360
2022-10-19T13:23:07.710Z,388
2022-10-19T13:24:07.678Z,372
2022-10-19T13:25:07.664Z,374
2022-10-19T13:26:07.660Z,370
2022-10-19T13:27:07.663Z,368
2022-10-19T13:28:07.692Z,367
2022-10-19T13:29:07.658Z,373
2022-10-19T13:30:07.657Z,377
2022-10-19T13:31:11.538Z,364
2022-10-19T13:32:07.661Z,390
2022-10-19T13:33:07.669Z,385
2022-10-19T13:34:07.655Z,397
2022-10-19T13:35:07.653Z,375
2022-10-19T13:36:07.661Z,357
2022-10-19T13:37:07.653Z,352
2022-10-19T13:38:07.690Z,365
2022-10-19T13:39:07.672Z,373
2022-10-19T13:40:07.653Z,371
2022-10-19T13:41:07.655Z,373
2022-10-19T13:42:07.649Z,365
2022-10-19T13:43:07.656Z,361
2022-10-19T13:44:07.653Z,362
2022-10-19T13:45:07.636Z,376
2022-10-19T13:46:07.641Z,386
2022-10-19T13:47:07.639Z,395
2022-10-19T13:48:07.665Z,369
2022-10-19T13:49:07.664Z,375
2022-10-19T13:50:07.642Z,372
2022-10-19T13:51:07.634Z,359
2022-10-19T13:52:07.630Z,370
2022-10-19T13:53:07.645Z,387
2022-10-19T13:54:07.642Z,357
2022-10-19T13:55:07.655Z,347
2022-10-19T13:56:07.634Z,355
2022-10-19T13:57:07.623Z,335
2022-10-19T13:58:07.628Z,360
2022-10-19T13:59:07.644Z,354
2022-10-19T14:00:07.625Z,363
2022-10-19T14:01:07.624Z,353
2022-10-19T14:02:07.654Z,330
2022-10-19T14:03:10.806Z,332
2022-10-19T14:04:07.622Z,329
2022-10-19T14:05:07.630Z,335
2022-10-19T14:06:07.618Z,366
2022-10-19T14:07:07.635Z,378
2022-10-19T14:08:07.613Z,387
2022-10-19T14:09:07.723Z,365